Time;durP1;ratioP1;P1;durP2;ratioP2;P2;SDS_P1;SDS_P2;PMS_P1;PMS_P2;Temp;Humidity;BMP_temperature;BMP_pressure;BME280_temperature;BME280_humidity;BME280_pressure;Samples;Min_cycle;Max_cycle;Signal;HPM_P1;HPM_P2
2022/05/10 00:00:19;;;;;;;14.82;2.55;;;;;;;14.32;100.00;99843.63;5072570;28;20181;-83
2022/05/10 00:02:50;;;;;;;9.73;2.03;;;;;;;14.42;100.00;99834.19;5056748;28;20076;-83
2022/05/10 00:05:25;;;;;;;8.68;1.98;;;;;;;14.30;100.00;99788.44;5053958;28;20045;-83
2022/05/10 00:07:53;;;;;;;13.85;2.60;;;;;;;14.32;100.00;99833.09;5052915;28;20049;-83
2022/05/10 00:10:19;;;;;;;9.48;2.30;;;;;;;14.31;100.00;99840.16;5052544;28;20063;-83
2022/05/10 00:12:46;;;;;;;8.52;1.88;;;;;;;14.44;100.00;99835.75;5088752;28;20052;-83
2022/05/10 00:15:13;;;;;;;14.60;2.95;;;;;;;14.30;100.00;99790.25;5070490;28;20045;-83
2022/05/10 00:17:41;;;;;;;14.68;3.28;;;;;;;14.10;100.00;99846.88;5072089;28;20628;-83
2022/05/10 00:20:13;;;;;;;9.50;2.20;;;;;;;14.08;100.00;99846.97;5073330;28;20048;-83
2022/05/10 00:22:40;;;;;;;13.02;3.08;;;;;;;13.95;100.00;99844.31;5071852;28;20052;-83
2022/05/10 00:25:10;;;;;;;8.82;2.33;;;;;;;14.13;100.00;99854.56;5062418;28;20048;-83
2022/05/10 00:27:36;;;;;;;11.82;3.10;;;;;;;14.15;100.00;99856.16;5052500;28;20397;-83
2022/05/10 00:30:05;;;;;;;9.50;2.30;;;;;;;14.08;100.00;99846.09;5056934;28;20052;-83
2022/05/10 00:32:35;;;;;;;20.92;3.45;;;;;;;13.87;100.00;99843.97;5088067;28;20438;-83
2022/05/10 00:35:05;;;;;;;9.77;2.55;;;;;;;14.16;100.00;99849.09;5085972;28;20406;-83
2022/05/10 00:37:32;;;;;;;10.75;2.55;;;;;;;14.24;100.00;99859.97;5051734;28;20527;-83
2022/05/10 00:39:59;;;;;;;9.45;2.00;;;;;;;14.34;100.00;99860.16;5056559;28;20042;-83
2022/05/10 00:43:10;;;;;;;8.70;2.22;;;;;;;14.41;100.00;99874.63;5072361;28;20048;-83
2022/05/10 00:45:46;;;;;;;8.57;2.20;;;;;;;14.09;100.00;99847.81;5071790;28;20095;-83
2022/05/10 00:48:52;;;;;;;13.55;3.25;;;;;;;13.97;100.00;99836.28;5073453;28;20405;-83
2022/05/10 00:51:38;;;;;;;13.55;2.28;;;;;;;14.54;100.00;99877.28;5070925;28;20048;-83
2022/05/10 00:54:31;;;;;;;7.22;2.17;;;;;;;14.66;100.00;99868.59;5071967;28;20052;-83
2022/05/10 00:57:12;;;;;;;9.25;2.08;;;;;;;14.74;100.00;99886.50;5072575;28;20055;-83
2022/05/10 01:00:14;;;;;;;7.20;1.98;;;;;;;14.34;100.00;99849.66;5064566;28;20052;-83
2022/05/10 01:02:46;;;;;;;7.32;2.47;;;;;;;14.30;100.00;99870.06;5071197;28;20123;-83
2022/05/10 01:05:24;;;;;;;9.77;2.65;;;;;;;14.30;100.00;99874.50;5071582;28;20048;-83
2022/05/10 01:08:03;;;;;;;6.88;1.85;;;;;;;14.35;100.00;99880.31;5071409;28;20415;-83
2022/05/10 01:10:43;;;;;;;8.57;1.95;;;;;;;14.62;100.00;99872.34;5071385;28;20044;-83
2022/05/10 01:13:34;;;;;;;6.45;1.90;;;;;;;14.19;100.00;99870.78;5066618;28;20053;-83
2022/05/10 01:16:08;;;;;;;5.40;1.65;;;;;;;14.57;100.00;99866.53;5057814;28;20056;-82
2022/05/10 01:18:36;;;;;;;5.78;1.67;;;;;;;14.49;100.00;99847.78;5083887;28;20095;-82
2022/05/10 01:21:29;;;;;;;7.78;1.80;;;;;;;14.56;100.00;99857.78;5054991;28;20051;-83
2022/05/10 01:23:59;;;;;;;4.63;1.83;;;;;;;14.52;100.00;99858.09;5071035;28;20402;-83
2022/05/10 01:26:38;;;;;;;4.68;1.55;;;;;;;14.38;100.00;99849.34;5070439;28;20044;-83
2022/05/10 01:29:10;;;;;;;5.20;1.60;;;;;;;14.37;100.00;99823.94;5072147;28;20063;-82
2022/05/10 01:33:29;;;;;;;5.15;1.55;;;;;;;14.19;100.00;99839.19;5064105;28;20049;-83
2022/05/10 01:34:35;;;;;;;6.20;1.55;;;;;;;14.45;100.00;99833.97;5052196;28;20487;-82
2022/05/10 01:37:20;;;;;;;8.32;2.17;;;;;;;14.05;100.00;99847.16;5083857;28;20045;-83
2022/05/10 01:40:08;;;;;;;5.60;1.60;;;;;;;14.20;100.00;99827.72;5051129;28;20049;-83
2022/05/10 01:42:47;;;;;;;8.73;2.10;;;;;;;14.36;100.00;99830.19;5101152;28;20049;-82
2022/05/10 01:45:32;;;;;;;6.80;1.92;;;;;;;14.35;100.00;99833.75;5071414;28;20530;-83
2022/05/10 01:48:01;;;;;;;5.35;2.58;;;;;;;14.47;100.00;99828.59;5072802;28;20497;-83
2022/05/10 01:50:32;;;;;;;5.30;2.00;;;;;;;14.18;100.00;99815.59;5067595;28;20052;-83
2022/05/10 01:53:08;;;;;;;5.68;1.88;;;;;;;14.27;100.00;99809.75;5070271;28;20052;-83
2022/05/10 01:55:38;;;;;;;4.13;1.50;;;;;;;14.09;100.00;99809.16;5070641;28;20672;-83
2022/05/10 01:58:33;;;;;;;6.75;2.40;;;;;;;13.90;100.00;99806.94;5071027;28;20658;-83
2022/05/10 02:01:03;;;;;;;5.32;1.80;;;;;;;13.84;100.00;99816.06;5052753;28;20098;-83
2022/05/10 02:04:01;;;;;;;7.32;1.75;;;;;;;14.10;100.00;99816.13;5050566;28;20095;-83
2022/05/10 02:07:14;;;;;;;3.03;1.20;;;;;;;13.86;100.00;99785.25;5051887;28;20398;-83
2022/05/10 02:09:44;;;;;;;4.47;1.88;;;;;;;14.07;100.00;99818.13;5050371;28;20049;-83
2022/05/10 02:12:26;;;;;;;4.10;1.63;;;;;;;14.04;100.00;99812.13;5063701;28;20060;-83
2022/05/10 02:14:59;;;;;;;4.60;1.63;;;;;;;13.46;100.00;99776.50;5070748;28;20387;-83
2022/05/10 02:17:48;;;;;;;6.13;1.98;;;;;;;13.53;100.00;99811.09;5070685;28;20055;-83
2022/05/10 02:20:18;;;;;;;5.82;1.73;;;;;;;13.45;100.00;99808.97;5069765;28;20052;-83
2022/05/10 02:22:53;;;;;;;5.10;1.55;;;;;;;13.62;100.00;99810.53;5070470;28;20568;-83
2022/05/10 02:25:25;;;;;;;7.10;1.80;;;;;;;13.16;100.00;99808.19;5070418;28;20048;-83
2022/05/10 02:27:59;;;;;;;4.80;1.53;;;;;;;13.13;100.00;99818.88;5071927;28;20394;-82
2022/05/10 02:30:29;;;;;;;4.68;1.40;;;;;;;13.21;100.00;99822.72;5070273;28;20489;-81
2022/05/10 02:33:08;;;;;;;3.47;1.20;;;;;;;13.25;100.00;99818.13;5067557;28;21038;-80
2022/05/10 02:35:42;;;;;;;5.88;1.50;;;;;;;13.06;100.00;99819.25;5071139;28;20052;-81
2022/05/10 02:38:18;;;;;;;5.13;1.35;;;;;;;12.92;100.00;99798.25;5070110;28;20402;-81
2022/05/10 02:40:46;;;;;;;5.95;1.60;;;;;;;12.98;100.00;99789.16;5069340;28;20052;-81
2022/05/10 02:43:18;;;;;;;7.03;1.38;;;;;;;13.05;100.00;99801.81;5070115;28;20500;-81
2022/05/10 02:45:45;;;;;;;4.78;1.33;;;;;;;12.99;100.00;99807.44;5068805;28;20044;-82
2022/05/10 02:48:24;;;;;;;6.38;1.50;;;;;;;12.95;100.00;99803.34;5098237;28;20049;-82
2022/05/10 02:50:51;;;;;;;8.55;1.67;;;;;;;12.79;100.00;99797.34;5070238;28;20144;-82
2022/05/10 02:53:18;;;;;;;5.68;1.52;;;;;;;12.57;100.00;99793.41;5069857;28;20136;-83
2022/05/10 02:55:47;;;;;;;5.22;1.25;;;;;;;12.84;100.00;99813.66;5071607;28;20075;-81
2022/05/10 02:58:42;;;;;;;6.47;1.50;;;;;;;12.54;100.00;99814.59;5070226;28;20058;-82
2022/05/10 03:01:35;;;;;;;6.80;1.52;;;;;;;12.90;100.00;99806.22;5051910;28;20418;-81
2022/05/10 03:04:05;;;;;;;7.55;1.70;;;;;;;12.51;100.00;99805.09;5051250;28;20045;-83
2022/05/10 03:06:38;;;;;;;;;;;;;;;12.59;100.00;99803.81;5063696;28;20507;-82
2022/05/10 03:09:06;;;;;;;7.25;1.50;;;;;;;12.68;100.00;99806.72;5050335;28;20363;-82
2022/05/10 03:11:35;;;;;;;10.35;1.73;;;;;;;12.66;100.00;99813.00;5058292;28;20052;-82
2022/05/10 03:14:06;;;;;;;11.00;1.95;;;;;;;12.56;100.00;99789.09;5069924;28;20059;-82
2022/05/10 03:16:34;;;;;;;7.85;1.30;;;;;;;12.44;100.00;99787.22;5069104;28;20044;-83
2022/05/10 03:19:04;;;;;;;3.67;1.42;;;;;;;12.26;100.00;99797.03;5069423;28;20544;-82
2022/05/10 03:21:34;;;;;;;6.45;1.38;;;;;;;12.05;100.00;99778.16;5069751;28;21321;-82
2022/05/10 03:24:01;;;;;;;5.75;1.52;;;;;;;11.88;100.00;99764.22;5071002;28;20057;-83
2022/05/10 03:26:28;;;;;;;10.98;2.13;;;;;;;12.26;100.00;99776.03;5074348;28;20520;-82
2022/05/10 03:28:55;;;;;;;6.88;1.73;;;;;;;12.25;100.00;99769.09;5071618;28;20490;-82
2022/05/10 03:31:25;;;;;;;8.35;2.10;;;;;;;12.19;100.00;99782.59;5068450;28;20084;-82
2022/05/10 03:36:38;;;;;;;11.55;2.08;;;;;;;12.04;100.00;99785.19;5072289;28;20091;-83
2022/05/10 03:39:06;;;;;;;9.32;1.92;;;;;;;12.32;100.00;99791.41;5073427;28;20055;-82
2022/05/10 03:41:33;;;;;;;7.32;1.58;;;;;;;11.78;100.00;99779.63;5071657;28;20049;-82
2022/05/10 03:44:00;;;;;;;8.05;1.83;;;;;;;11.76;100.00;99772.81;5074391;28;20066;-83
2022/05/10 03:46:27;;;;;;;9.85;1.77;;;;;;;11.65;100.00;99757.69;5073369;28;20482;-82
2022/05/10 03:48:53;;;;;;;9.13;2.30;;;;;;;12.05;100.00;99788.66;5073726;28;20128;-81
2022/05/10 03:51:21;;;;;;;10.80;2.15;;;;;;;11.83;100.00;99774.13;5072538;28;20049;-83
2022/05/10 03:53:48;;;;;;;9.52;1.95;;;;;;;11.73;100.00;99775.59;5072890;28;20045;-83
2022/05/10 03:56:14;;;;;;;13.18;2.35;;;;;;;11.87;100.00;99786.13;5073844;28;20052;-82
2022/05/10 03:58:42;;;;;;;9.35;2.08;;;;;;;11.80;100.00;99799.69;5062388;28;20116;-81
2022/05/10 04:01:09;;;;;;;9.52;2.13;;;;;;;11.90;100.00;99790.38;5060187;28;20048;-81
2022/05/10 04:03:36;;;;;;;8.23;1.77;;;;;;;11.63;100.00;99750.84;5074962;28;20056;-81
2022/05/10 04:06:03;;;;;;;7.78;2.10;;;;;;;11.64;100.00;99800.56;5074252;28;20131;-82
2022/05/10 04:08:31;;;;;;;6.93;1.90;;;;;;;11.57;100.00;99771.22;5072708;28;20053;-82
2022/05/10 04:11:03;;;;;;;11.98;2.10;;;;;;;11.67;100.00;99768.94;5072028;28;20044;-83
2022/05/10 04:13:36;;;;;;;7.50;1.80;;;;;;;12.08;100.00;99785.84;5073390;28;20059;-82
2022/05/10 04:16:04;;;;;;;10.65;2.38;;;;;;;12.14;100.00;99809.09;5072313;28;20048;-83
2022/05/10 04:18:30;;;;;;;12.65;2.80;;;;;;;12.13;100.00;99808.25;5073033;28;20443;-82
2022/05/10 04:20:57;;;;;;;6.40;1.70;;;;;;;12.15;100.00;99811.63;5072096;28;20044;-83
2022/05/10 04:23:25;;;;;;;10.55;2.05;;;;;;;12.13;100.00;99782.00;5072459;28;20135;-82
2022/05/10 04:26:11;;;;;;;8.40;1.75;;;;;;;11.53;100.00;99777.59;5073330;28;20076;-82
2022/05/10 04:28:38;;;;;;;7.00;1.60;;;;;;;11.98;100.00;99792.56;5072777;28;20463;-82
2022/05/10 04:31:06;;;;;;;9.70;1.95;;;;;;;11.84;100.00;99777.59;5071579;28;20470;-82
2022/05/10 04:33:33;;;;;;;7.22;2.10;;;;;;;12.07;100.00;99795.47;5071659;28;20070;-82
2022/05/10 04:36:00;;;;;;;9.85;2.17;;;;;;;12.14;100.00;99814.34;5070716;28;20052;-82
2022/05/10 04:38:27;;;;;;;8.63;1.80;;;;;;;11.97;100.00;99752.38;5071674;28;20081;-83
2022/05/10 04:43:40;;;;;;;8.15;1.80;;;;;;;12.28;100.00;99803.03;5073459;28;20139;-83
2022/05/10 04:46:06;;;;;;;8.82;2.33;;;;;;;11.91;100.00;99764.06;5071749;28;20045;-83
2022/05/10 04:48:33;;;;;;;8.35;2.08;;;;;;;11.55;100.00;99744.25;5073684;28;20041;-83
2022/05/10 04:51:02;;;;;;;10.57;2.15;;;;;;;12.07;100.00;99771.88;5071051;28;20467;-83
2022/05/10 04:53:29;;;;;;;11.55;2.10;;;;;;;11.86;100.00;99760.81;5071990;28;20048;-83
2022/05/10 04:55:56;;;;;;;8.70;2.15;;;;;;;12.08;100.00;99783.22;5073240;28;20051;-83
2022/05/10 04:58:23;;;;;;;8.00;1.70;;;;;;;12.48;100.00;99778.19;5072079;28;20494;-82
2022/05/10 05:00:50;;;;;;;9.93;2.25;;;;;;;12.57;100.00;99801.28;5067454;28;20049;-83
2022/05/10 05:03:17;;;;;;;12.63;2.28;;;;;;;12.03;100.00;99804.47;5071834;28;20044;-82
2022/05/10 05:05:43;;;;;;;8.02;1.95;;;;;;;12.26;100.00;99781.28;5066885;28;20049;-82
2022/05/10 05:08:10;;;;;;;9.43;2.97;;;;;;;11.50;100.00;99735.81;5052254;28;20044;-82
2022/05/10 05:10:37;;;;;;;11.25;2.53;;;;;;;11.63;100.00;99749.03;5052298;28;20053;-82
2022/05/10 05:13:04;;;;;;;11.52;2.80;;;;;;;11.85;100.00;99781.91;5071606;28;20406;-82
2022/05/10 05:15:31;;;;;;;11.40;2.42;;;;;;;11.81;100.00;99773.38;5071114;28;20487;-83
2022/05/10 05:17:57;;;;;;;10.02;2.30;;;;;;;11.98;100.00;99777.66;5072078;28;20510;-83
2022/05/10 05:20:24;;;;;;;15.13;3.20;;;;;;;12.59;100.00;99773.16;5072588;28;20052;-82
2022/05/10 05:22:51;;;;;;;10.10;2.30;;;;;;;12.16;100.00;99759.97;5070607;28;20063;-83
2022/05/10 05:25:18;;;;;;;12.88;2.50;;;;;;;11.98;100.00;99763.72;5072155;28;20075;-83
2022/05/10 05:27:44;;;;;;;12.82;2.75;;;;;;;12.03;100.00;99759.03;5052840;28;20044;-83
2022/05/10 05:30:15;;;;;;;11.50;2.08;;;;;;;12.22;100.00;99743.06;5054415;28;20502;-83
2022/05/10 05:32:42;;;;;;;15.65;3.20;;;;;;;12.23;100.00;99791.97;5070883;28;20471;-82
2022/05/10 05:35:11;;;;;;;10.10;2.30;;;;;;;12.39;100.00;99755.13;5071025;28;20119;-81
2022/05/10 05:37:38;;;;;;;15.25;2.97;;;;;;;11.83;100.00;99758.41;5071328;28;20114;-82
2022/05/10 05:40:09;;;;;;;9.88;2.47;;;;;;;12.10;100.00;99786.59;5072630;28;20398;-81
2022/05/10 05:42:44;;;;;;;13.77;2.83;;;;;;;11.87;100.00;99777.44;5070886;28;20473;-81
2022/05/10 05:45:13;;;;;;;11.88;2.78;;;;;;;11.65;100.00;99736.72;5069796;28;20136;-81
2022/05/10 05:47:40;;;;;;;13.35;3.38;;;;;;;12.05;100.00;99754.53;5067326;28;20058;-82
2022/05/10 05:50:09;;;;;;;10.27;2.40;;;;;;;12.62;100.00;99787.88;5061245;28;20059;-82
2022/05/10 05:52:37;;;;;;;11.15;2.10;;;;;;;12.74;100.00;99787.13;5068122;28;20139;-82
2022/05/10 05:55:04;;;;;;;9.40;2.20;;;;;;;12.23;100.00;99763.94;5062430;28;20068;-82
2022/05/10 05:57:32;;;;;;;15.60;2.97;;;;;;;12.61;100.00;99794.91;5069972;28;20490;-83
2022/05/10 05:59:59;;;;;;;12.77;2.95;;;;;;;12.41;100.00;99783.00;5070670;28;20401;-83
2022/05/10 06:02:27;;;;;;;11.48;2.97;;;;;;;12.25;100.00;99797.97;5061443;28;20697;-84
2022/05/10 06:04:54;;;;;;;11.05;2.65;;;;;;;13.09;100.00;99792.78;5066929;28;20413;-84
2022/05/10 06:07:21;;;;;;;10.50;2.30;;;;;;;13.96;100.00;99774.94;5067576;28;20048;-84
2022/05/10 06:09:49;;;;;;;14.63;2.88;;;;;;;14.50;100.00;99783.59;5065980;28;20045;-84
2022/05/10 06:12:18;;;;;;;9.50;2.65;;;;;;;14.72;100.00;99762.75;5062454;28;20040;-84
2022/05/10 06:14:45;;;;;;;15.40;2.35;;;;;;;14.52;100.00;99758.84;5063632;28;20892;-84
2022/05/10 06:17:13;;;;;;;13.10;2.72;;;;;;;14.97;100.00;99759.22;5057415;28;20562;-84
2022/05/10 06:19:41;;;;;;;13.20;3.10;;;;;;;15.43;100.00;99764.75;5061845;28;20135;-84
2022/05/10 06:22:10;;;;;;;8.35;2.22;;;;;;;15.42;100.00;99763.91;5058755;28;20554;-84
2022/05/10 06:24:38;;;;;;;11.20;2.17;;;;;;;15.38;100.00;99775.63;5061325;28;20053;-84
2022/05/10 06:27:07;;;;;;;12.43;2.38;;;;;;;16.08;100.00;99729.16;5065108;28;20048;-84
2022/05/10 06:29:34;;;;;;;16.83;2.78;;;;;;;15.72;100.00;99781.06;5063326;28;20079;-84
2022/05/10 06:32:02;;;;;;;8.93;1.90;;;;;;;16.82;100.00;99768.31;5068616;28;20116;-85
2022/05/10 06:34:29;;;;;;;11.30;1.92;;;;;;;17.38;100.00;99762.94;5063410;28;20045;-85
2022/05/10 06:36:56;;;;;;;16.20;2.95;;;;;;;16.60;100.00;99792.94;5068389;28;20050;-84
2022/05/10 06:39:23;;;;;;;11.80;2.20;;;;;;;16.54;100.00;99802.19;5055220;28;20053;-84
2022/05/10 06:41:51;;;;;;;10.88;2.35;;;;;;;16.25;100.00;99763.00;5051151;28;20044;-84
2022/05/10 06:44:18;;;;;;;10.70;2.10;;;;;;;15.53;100.00;99758.69;5068783;28;20074;-85
2022/05/10 06:46:45;;;;;;;12.30;2.60;;;;;;;16.75;100.00;99749.47;5068512;28;20060;-85
2022/05/10 06:49:11;;;;;;;9.68;2.30;;;;;;;16.04;100.00;99735.59;5067180;28;20777;-85
2022/05/10 06:51:40;;;;;;;12.52;2.78;;;;;;;15.22;100.00;99801.44;5070864;28;20083;-85
2022/05/10 06:54:07;;;;;;;14.55;3.00;;;;;;;14.31;100.00;99789.31;5061430;28;20049;-85
2022/05/10 06:56:34;;;;;;;8.77;2.13;;;;;;;14.97;100.00;99761.84;5055713;28;20674;-85
2022/05/10 06:59:01;;;;;;;13.15;2.65;;;;;;;16.19;100.00;99787.25;5068754;28;20445;-85
2022/05/10 07:01:27;;;;;;;10.57;2.47;;;;;;;16.86;100.00;99765.34;5067345;28;20466;-86
2022/05/10 07:03:54;;;;;;;12.15;2.10;;;;;;;16.03;100.00;99762.97;5086901;28;20604;-85
2022/05/10 07:06:27;;;;;;;12.07;1.92;;;;;;;16.51;100.00;99766.28;5065322;28;20059;-82
2022/05/10 07:08:53;;;;;;;12.75;2.17;;;;;;;17.46;100.00;99779.03;5074821;28;20836;-85
2022/05/10 07:11:20;;;;;;;10.80;1.88;;;;;;;17.43;100.00;99773.16;5067962;28;20053;-85
2022/05/10 07:13:47;;;;;;;10.45;2.20;;;;;;;16.94;100.00;99740.91;5072827;28;20580;-85
2022/05/10 07:16:14;;;;;;;10.43;2.03;;;;;;;17.42;100.00;99747.66;5072106;28;20063;-85
2022/05/10 07:18:41;;;;;;;8.23;1.75;;;;;;;17.53;100.00;99750.28;5073787;28;20045;-86
2022/05/10 07:21:10;;;;;;;12.20;2.40;;;;;;;17.01;100.00;99736.81;5073528;28;20059;-86
2022/05/10 07:23:37;;;;;;;9.27;2.00;;;;;;;17.03;100.00;99747.28;5076766;28;20410;-86
2022/05/10 07:26:13;;;;;;;13.15;2.22;;;;;;;18.24;100.00;99714.38;5076237;28;20047;-84
2022/05/10 07:28:40;;;;;;;8.65;1.48;;;;;;;18.75;100.00;99716.13;5073904;28;20055;-81
2022/05/10 07:31:12;;;;;;;9.20;2.13;;;;;;;18.48;98.63;99722.88;5070144;28;20079;-82
2022/05/10 07:33:39;;;;;;;9.73;1.77;;;;;;;18.43;99.02;99748.09;5063842;28;20052;-83
2022/05/10 07:36:24;;;;;;;7.72;1.50;;;;;;;18.88;100.00;99761.00;5062831;28;20049;-83
2022/05/10 07:38:52;;;;;;;7.65;1.77;;;;;;;18.99;97.39;99773.31;5070579;28;20505;-83
2022/05/10 07:41:22;;;;;;;9.43;1.63;;;;;;;18.66;96.63;99748.75;5066752;28;20060;-82
2022/05/10 07:43:50;;;;;;;5.43;1.48;;;;;;;19.30;94.47;99761.66;5073734;28;20048;-82
2022/05/10 07:46:20;;;;;;;8.18;1.60;;;;;;;19.40;96.11;99788.19;5073504;28;20049;-82
2022/05/10 07:48:47;;;;;;;8.80;2.00;;;;;;;18.86;96.05;99747.06;5068338;28;20055;-82
2022/05/10 07:51:14;;;;;;;7.97;1.90;;;;;;;17.88;99.78;99762.41;5069835;28;20509;-84
2022/05/10 07:53:41;;;;;;;6.10;1.55;;;;;;;18.72;100.00;99753.53;5069351;28;20161;-84
2022/05/10 07:56:11;;;;;;;7.72;1.75;;;;;;;18.54;95.62;99751.50;5052844;28;20049;-84
2022/05/10 07:58:55;;;;;;;11.35;2.00;;;;;;;17.45;100.00;99760.63;5060678;28;20044;-84
2022/05/10 08:01:23;;;;;;;12.20;2.10;;;;;;;17.69;100.00;99738.41;5051880;28;20053;-85
2022/05/10 08:03:50;;;;;;;9.18;1.90;;;;;;;18.12;99.65;99753.38;5071902;28;20051;-84
2022/05/10 08:06:17;;;;;;;8.18;1.70;;;;;;;18.59;97.65;99761.69;5071610;28;20576;-84
2022/05/10 08:08:44;;;;;;;6.95;1.40;;;;;;;18.66;95.40;99740.78;5057462;28;20041;-84
2022/05/10 08:11:12;;;;;;;6.60;1.50;;;;;;;18.72;96.01;99750.88;5070522;28;20136;-84
2022/05/10 08:13:39;;;;;;;8.77;2.00;;;;;;;18.40;93.46;99750.03;5071897;28;20140;-84
2022/05/10 08:16:08;;;;;;;9.63;2.17;;;;;;;18.09;100.00;99774.81;5073180;28;20626;-83
2022/05/10 08:18:39;;;;;;;10.73;2.17;;;;;;;18.58;98.14;99768.81;5071987;28;20041;-84
2022/05/10 08:21:06;;;;;;;6.88;1.60;;;;;;;19.05;94.56;99755.06;5070199;28;20044;-84
2022/05/10 08:23:38;;;;;;;9.05;1.70;;;;;;;18.91;90.18;99761.59;5072369;28;20055;-83
2022/05/10 08:26:06;;;;;;;9.87;1.63;;;;;;;19.38;89.38;99765.44;5071308;28;20051;-84
2022/05/10 08:28:35;;;;;;;6.95;1.40;;;;;;;19.21;86.00;99758.97;5068708;28;20037;-83
2022/05/10 08:31:07;;;;;;;6.88;1.50;;;;;;;19.74;91.38;99758.63;5070180;28;20048;-85
2022/05/10 08:33:37;;;;;;;11.23;1.75;;;;;;;19.31;81.55;99733.31;5064270;28;20048;-84
2022/05/10 08:36:08;;;;;;;5.05;1.20;;;;;;;19.52;80.46;99765.03;5069386;28;20076;-84
2022/05/10 08:38:35;;;;;;;7.40;1.60;;;;;;;19.91;78.43;99759.75;5051988;28;20071;-84
2022/05/10 08:41:14;;;;;;;8.75;1.60;;;;;;;18.82;83.64;99724.41;5052639;28;20691;-84
2022/05/10 08:43:55;;;;;;;5.18;1.40;;;;;;;19.45;82.28;99740.03;5068313;28;20117;-84
2022/05/10 08:46:29;;;;;;;5.18;1.35;;;;;;;19.08;84.10;99736.19;5072095;28;20487;-84
2022/05/10 08:49:26;;;;;;;7.65;1.75;;;;;;;19.36;83.03;99757.63;5072001;28;20438;-84
2022/05/10 08:51:53;;;;;;;6.40;1.52;;;;;;;19.28;80.38;99753.00;5069799;28;20400;-84
2022/05/10 08:54:29;;;;;;;8.75;1.75;;;;;;;19.67;78.90;99741.53;5071779;28;20049;-84
2022/05/10 08:57:14;;;;;;;10.07;1.73;;;;;;;20.01;76.59;99757.06;5057989;28;20427;-83
2022/05/10 09:00:02;;;;;;;7.45;1.67;;;;;;;19.23;76.27;99760.53;5052428;28;20055;-84
2022/05/10 09:02:35;;;;;;;7.95;1.95;;;;;;;20.06;75.55;99725.56;5065902;28;20049;-83
2022/05/10 09:05:13;;;;;;;5.30;1.17;;;;;;;20.59;76.30;99732.97;5071171;28;20616;-84
2022/05/10 09:07:51;;;;;;;9.55;1.55;;;;;;;19.90;78.65;99735.00;5065750;28;20044;-84
2022/05/10 09:10:49;;;;;;;6.88;1.70;;;;;;;19.11;80.34;99735.09;5072611;28;20826;-84
2022/05/10 09:13:17;;;;;;;6.90;1.45;;;;;;;18.72;82.53;99738.44;5067977;28;20127;-84
2022/05/10 09:15:55;;;;;;;6.32;1.30;;;;;;;18.70;86.08;99742.22;5072295;28;20060;-84
2022/05/10 09:18:28;;;;;;;6.90;1.45;;;;;;;17.76;86.40;99694.56;5068430;28;20057;-83
2022/05/10 09:21:10;;;;;;;5.05;1.10;;;;;;;18.75;81.69;99754.09;5061663;28;20044;-83
2022/05/10 09:24:07;;;;;;;9.68;1.33;;;;;;;18.09;85.18;99730.63;5061260;28;20060;-84
2022/05/10 09:26:42;;;;;;;7.82;1.55;;;;;;;17.68;92.50;99737.56;5061934;28;20048;-84
2022/05/10 09:29:12;;;;;;;5.93;1.42;;;;;;;18.24;88.57;99751.47;5072262;28;20398;-82
2022/05/10 09:34:49;;;;;;;7.00;1.70;;;;;;;18.15;86.23;99735.41;5068389;28;20056;-83
2022/05/10 09:37:27;;;;;;;6.97;1.10;;;;;;;18.25;85.49;99738.09;5050110;28;20278;-83
2022/05/10 09:39:56;;;;;;;8.57;1.42;;;;;;;19.07;86.22;99734.53;5055707;28;20044;-83
2022/05/10 09:42:32;;;;;;;4.70;1.20;;;;;;;19.50;83.01;99703.28;5070531;28;20148;-83
2022/05/10 09:45:21;;;;;;;6.05;1.45;;;;;;;19.64;78.91;99715.28;5067591;28;20049;-83
2022/05/10 09:47:58;;;;;;;5.72;1.20;;;;;;;20.14;78.04;99724.88;5065255;28;20052;-84
2022/05/10 09:50:51;;;;;;;5.25;1.30;;;;;;;19.27;75.56;99706.19;5070394;28;20055;-84
2022/05/10 09:53:28;;;;;;;6.13;1.35;;;;;;;19.48;75.77;99702.59;5063852;28;20059;-84
2022/05/10 09:56:05;;;;;;;8.05;1.65;;;;;;;18.39;78.70;99708.59;5069797;28;20530;-83
2022/05/10 09:58:38;;;;;;;5.72;1.25;;;;;;;18.51;82.11;99703.22;5069955;28;20044;-84
2022/05/10 10:01:09;;;;;;;6.50;1.50;;;;;;;18.36;84.07;99740.69;5071736;28;20584;-84
2022/05/10 10:03:39;;;;;;;7.13;1.50;;;;;;;18.12;83.98;99703.88;5069474;28;20520;-84
2022/05/10 10:06:17;;;;;;;6.93;1.20;;;;;;;17.18;86.21;99672.00;5070675;28;20087;-83
2022/05/10 10:08:50;;;;;;;8.23;1.25;;;;;;;17.20;85.69;99722.97;5063074;28;20044;-83
2022/05/10 10:11:23;;;;;;;3.97;1.10;;;;;;;17.75;84.00;99728.16;5057644;28;20049;-83
2022/05/10 10:13:57;;;;;;;7.32;1.30;;;;;;;18.07;81.11;99706.06;5069532;28;20080;-82
2022/05/10 10:16:34;;;;;;;7.40;1.38;;;;;;;18.19;80.11;99705.03;5071670;28;20056;-85
2022/05/10 10:19:07;;;;;;;5.03;1.20;;;;;;;18.84;77.28;99727.75;5070283;28;20577;-84
2022/05/10 10:21:44;;;;;;;;;;;;;;;18.43;80.21;99733.03;5070430;28;20052;-84
2022/05/10 10:24:21;;;;;;;5.32;1.05;;;;;;;18.66;79.15;99693.06;5071282;28;19920;-84
2022/05/10 10:26:53;;;;;;;6.80;1.17;;;;;;;18.77;80.68;99719.50;5069736;28;20410;-84
2022/05/10 10:29:40;;;;;;;4.05;0.90;;;;;;;19.64;78.57;99699.38;5070896;28;20049;-84
2022/05/10 10:32:15;;;;;;;5.25;1.05;;;;;;;19.32;74.70;99689.88;5069473;28;20064;-85
2022/05/10 10:34:57;;;;;;;6.28;1.30;;;;;;;19.26;68.17;99685.94;5076980;28;20052;-85
2022/05/10 10:37:32;;;;;;;3.30;0.80;;;;;;;19.35;66.62;99716.13;5076130;28;20045;-85
2022/05/10 10:40:12;;;;;;;3.22;0.95;;;;;;;18.75;64.75;99697.56;5056282;28;20045;-85
2022/05/10 10:42:48;;;;;;;2.95;0.98;;;;;;;19.80;63.55;99725.38;5073519;28;20052;-85
2022/05/10 10:45:17;;;;;;;2.72;0.85;;;;;;;19.71;60.78;99719.88;5076030;28;20044;-85
2022/05/10 10:48:06;;;;;;;3.90;0.90;;;;;;;20.86;58.90;99724.19;5078103;28;20055;-84
2022/05/10 10:50:35;;;;;;;6.63;1.30;;;;;;;20.26;56.56;99692.66;5076092;28;20550;-84
2022/05/10 10:53:07;;;;;;;6.88;1.60;;;;;;;20.27;56.03;99651.81;5076339;28;20053;-85
2022/05/10 10:55:43;;;;;;;3.75;0.93;;;;;;;19.66;54.07;99719.47;5076022;28;20052;-84
2022/05/10 10:58:22;;;;;;;4.10;0.90;;;;;;;20.02;54.64;99708.25;5076211;28;20426;-85
2022/05/10 11:00:55;;;;;;;4.25;0.95;;;;;;;20.51;54.22;99690.31;5066523;28;20052;-84
2022/05/10 11:03:34;;;;;;;5.50;1.20;;;;;;;20.23;53.90;99695.59;5071084;28;20053;-84
2022/05/10 11:06:22;;;;;;;3.83;0.90;;;;;;;20.53;54.23;99703.47;5073792;28;20044;-84
2022/05/10 11:09:24;;;;;;;6.97;1.20;;;;;;;20.29;51.24;99702.16;5075748;28;20050;-83
2022/05/10 11:12:13;;;;;;;5.93;1.55;;;;;;;20.00;52.36;99715.53;5072740;28;20087;-84
2022/05/10 11:14:49;;;;;;;3.28;0.93;;;;;;;20.40;51.88;99702.00;5076459;28;20080;-84
2022/05/10 11:17:40;;;;;;;6.25;1.10;;;;;;;20.21;52.06;99691.44;5076687;28;20057;-85
2022/05/10 11:20:22;;;;;;;7.35;1.17;;;;;;;19.76;49.66;99716.00;5060885;28;20139;-84
2022/05/10 11:23:06;;;;;;;3.95;0.93;;;;;;;20.08;48.27;99689.09;5074854;28;20048;-85
2022/05/10 11:26:16;;;;;;;5.05;1.25;;;;;;;19.78;48.76;99709.56;5074964;28;20562;-85
2022/05/10 11:28:46;;;;;;;7.30;1.55;;;;;;;20.17;49.84;99705.97;5056096;28;20063;-84
2022/05/10 11:31:28;;;;;;;5.57;1.02;;;;;;;20.29;49.82;99689.72;5071529;28;20426;-85
2022/05/10 11:34:26;;;;;;;6.65;1.40;;;;;;;19.74;49.60;99710.81;5077039;28;20106;-85
2022/05/10 11:36:58;;;;;;;4.20;0.93;;;;;;;20.38;48.93;99692.47;5056484;28;20049;-85
2022/05/10 11:39:31;;;;;;;7.22;1.13;;;;;;;20.68;47.88;99688.72;5064342;28;20040;-86
2022/05/10 11:42:23;;;;;;;4.22;0.80;;;;;;;20.80;48.27;99692.00;5071192;28;20485;-85
2022/05/10 11:45:02;;;;;;;5.88;1.13;;;;;;;19.73;48.61;99666.63;5069741;28;20041;-85
2022/05/10 11:47:44;;;;;;;6.15;1.35;;;;;;;20.48;48.15;99693.28;5054347;28;20094;-85
2022/05/10 11:50:26;;;;;;;4.10;1.23;;;;;;;20.48;47.94;99685.28;5071653;28;20452;-84
2022/05/10 11:53:16;;;;;;;5.70;1.10;;;;;;;20.40;48.00;99656.78;5069197;28;20059;-85
2022/05/10 11:55:57;;;;;;;5.07;1.50;;;;;;;20.23;47.46;99650.41;5072237;28;20052;-85
2022/05/10 11:58:27;;;;;;;5.75;1.25;;;;;;;19.98;48.57;99665.19;5061228;28;20045;-84
2022/05/10 12:01:04;;;;;;;5.43;1.10;;;;;;;20.52;48.30;99691.97;5065509;28;20055;-84
2022/05/10 12:03:41;;;;;;;7.03;1.00;;;;;;;20.56;47.82;99681.91;5073549;28;20128;-85